sensor_id;sensor_type;location;lat;lon;timestamp;pressure;altitude;pressure_sealevel;temperature;humidity
68141;BME280;54941;52.220;104.306;2024-02-21T00:01:14;99330.94;;;-33.69;61.54
68141;BME280;54941;52.220;104.306;2024-02-21T00:03:41;99331.00;;;-33.47;62.37
68141;BME280;54941;52.220;104.306;2024-02-21T00:06:08;99333.72;;;-33.46;62.75
68141;BME280;54941;52.220;104.306;2024-02-21T00:08:35;99330.28;;;-33.64;61.83
68141;BME280;54941;52.220;104.306;2024-02-21T00:11:01;99333.22;;;-33.53;61.42
68141;BME280;54941;52.220;104.306;2024-02-21T00:13:27;99327.53;;;-33.40;61.12
68141;BME280;54941;52.220;104.306;2024-02-21T00:15:54;99328.59;;;-33.30;60.90
68141;BME280;54941;52.220;104.306;2024-02-21T00:18:20;99334.75;;;-33.32;60.33
68141;BME280;54941;52.220;104.306;2024-02-21T00:20:46;99342.91;;;-33.41;59.71
68141;BME280;54941;52.220;104.306;2024-02-21T00:23:14;99327.59;;;-33.44;59.98
68141;BME280;54941;52.220;104.306;2024-02-21T00:25:40;99327.59;;;-33.44;59.95
68141;BME280;54941;52.220;104.306;2024-02-21T00:28:06;99325.59;;;-33.59;59.65
68141;BME280;54941;52.220;104.306;2024-02-21T00:30:33;99319.31;;;-33.48;59.74
68141;BME280;54941;52.220;104.306;2024-02-21T00:32:59;99323.41;;;-33.57;59.87
68141;BME280;54941;52.220;104.306;2024-02-21T00:35:25;99324.78;;;-33.41;60.00
68141;BME280;54941;52.220;104.306;2024-02-21T00:37:51;99334.53;;;-33.15;59.70
68141;BME280;54941;52.220;104.306;2024-02-21T00:40:19;99336.44;;;-33.18;60.13
68141;BME280;54941;52.220;104.306;2024-02-21T00:42:46;99335.72;;;-33.13;60.65
68141;BME280;54941;52.220;104.306;2024-02-21T00:45:12;99336.00;;;-32.90;60.45
68141;BME280;54941;52.220;104.306;2024-02-21T00:47:38;99327.19;;;-32.80;59.47
68141;BME280;54941;52.220;104.306;2024-02-21T00:50:07;99329.38;;;-32.99;59.79
68141;BME280;54941;52.220;104.306;2024-02-21T00:52:34;99328.25;;;-32.87;59.52
68141;BME280;54941;52.220;104.306;2024-02-21T00:55:00;99329.81;;;-32.88;59.16
68141;BME280;54941;52.220;104.306;2024-02-21T00:57:28;99328.03;;;-32.75;59.33
68141;BME280;54941;52.220;104.306;2024-02-21T00:59:54;99335.03;;;-32.69;59.13
68141;BME280;54941;52.220;104.306;2024-02-21T01:02:21;99336.84;;;-32.68;59.43
68141;BME280;54941;52.220;104.306;2024-02-21T01:04:47;99328.72;;;-32.58;59.79
68141;BME280;54941;52.220;104.306;2024-02-21T01:07:13;99335.81;;;-32.60;59.86
68141;BME280;54941;52.220;104.306;2024-02-21T01:09:39;99321.03;;;-32.24;59.47
68141;BME280;54941;52.220;104.306;2024-02-21T01:12:06;99331.50;;;-32.08;59.45
68141;BME280;54941;52.220;104.306;2024-02-21T01:14:34;99338.06;;;-32.12;60.52
68141;BME280;54941;52.220;104.306;2024-02-21T01:17:00;99336.44;;;-31.90;60.37
68141;BME280;54941;52.220;104.306;2024-02-21T01:19:26;99332.09;;;-31.73;60.82
68141;BME280;54941;52.220;104.306;2024-02-21T01:21:52;99333.72;;;-31.64;60.80
68141;BME280;54941;52.220;104.306;2024-02-21T01:24:19;99338.44;;;-31.38;60.78
68141;BME280;54941;52.220;104.306;2024-02-21T01:26:45;99322.53;;;-31.03;61.19
68141;BME280;54941;52.220;104.306;2024-02-21T01:29:11;99317.97;;;-30.92;61.11
68141;BME280;54941;52.220;104.306;2024-02-21T01:31:39;99309.94;;;-30.77;61.33
68141;BME280;54941;52.220;104.306;2024-02-21T01:34:05;99327.16;;;-30.49;60.88
68141;BME280;54941;52.220;104.306;2024-02-21T01:36:31;99313.88;;;-30.50;60.98
68141;BME280;54941;52.220;104.306;2024-02-21T01:38:58;99309.84;;;-30.49;60.96
68141;BME280;54941;52.220;104.306;2024-02-21T01:41:24;99301.97;;;-30.43;61.52
68141;BME280;54941;52.220;104.306;2024-02-21T01:43:50;99289.47;;;-29.07;60.40
68141;BME280;54941;52.220;104.306;2024-02-21T01:46:17;99287.66;;;-28.30;57.69
68141;BME280;54941;52.220;104.306;2024-02-21T01:48:46;99293.97;;;-28.07;55.84
68141;BME280;54941;52.220;104.306;2024-02-21T01:51:12;99281.81;;;-27.62;55.22
68141;BME280;54941;52.220;104.306;2024-02-21T01:53:43;99271.25;;;-27.20;54.12
68141;BME280;54941;52.220;104.306;2024-02-21T01:56:10;99275.06;;;-27.23;53.45
68141;BME280;54941;52.220;104.306;2024-02-21T01:58:39;99281.09;;;-27.51;53.36
68141;BME280;54941;52.220;104.306;2024-02-21T02:01:06;99267.03;;;-26.76;52.33
68141;BME280;54941;52.220;104.306;2024-02-21T02:03:32;99263.41;;;-25.96;51.27
68141;BME280;54941;52.220;104.306;2024-02-21T02:06:00;99245.53;;;-24.84;49.12
68141;BME280;54941;52.220;104.306;2024-02-21T02:08:27;99244.78;;;-25.20;47.83
68141;BME280;54941;52.220;104.306;2024-02-21T02:10:53;99240.88;;;-25.24;48.45
68141;BME280;54941;52.220;104.306;2024-02-21T02:13:20;99232.22;;;-24.03;46.93
68141;BME280;54941;52.220;104.306;2024-02-21T02:15:47;99233.59;;;-24.43;45.98
68141;BME280;54941;52.220;104.306;2024-02-21T02:18:15;99229.63;;;-24.20;45.31
68141;BME280;54941;52.220;104.306;2024-02-21T02:20:43;99219.94;;;-24.07;45.31
68141;BME280;54941;52.220;104.306;2024-02-21T02:25:41;99229.38;;;-24.27;45.67
68141;BME280;54941;52.220;104.306;2024-02-21T02:28:07;99215.41;;;-24.04;44.97
68141;BME280;54941;52.220;104.306;2024-02-21T02:30:33;99197.47;;;-22.52;43.22
68141;BME280;54941;52.220;104.306;2024-02-21T02:33:00;99190.47;;;-21.92;42.27
68141;BME280;54941;52.220;104.306;2024-02-21T02:35:26;99194.97;;;-21.78;41.84
68141;BME280;54941;52.220;104.306;2024-02-21T02:37:53;99189.88;;;-22.13;44.56
68141;BME280;54941;52.220;104.306;2024-02-21T02:40:19;99190.63;;;-21.79;44.48
68141;BME280;54941;52.220;104.306;2024-02-21T02:42:47;99183.50;;;-21.65;42.50
68141;BME280;54941;52.220;104.306;2024-02-21T02:45:13;99166.63;;;-20.96;42.11
68141;BME280;54941;52.220;104.306;2024-02-21T02:47:40;99140.47;;;-17.49;40.47
68141;BME280;54941;52.220;104.306;2024-02-21T02:50:07;99158.44;;;-18.88;40.48
68141;BME280;54941;52.220;104.306;2024-02-21T02:52:33;99138.44;;;-18.68;39.06
68141;BME280;54941;52.220;104.306;2024-02-21T02:54:59;99141.91;;;-17.51;39.57
68141;BME280;54941;52.220;104.306;2024-02-21T02:57:26;99132.22;;;-17.28;37.94
68141;BME280;54941;52.220;104.306;2024-02-21T02:59:53;99146.47;;;-18.07;39.62
68141;BME280;54941;52.220;104.306;2024-02-21T03:02:20;99120.03;;;-16.52;37.99
68141;BME280;54941;52.220;104.306;2024-02-21T03:04:46;99106.50;;;-15.84;37.12
68141;BME280;54941;52.220;104.306;2024-02-21T03:07:13;99107.31;;;-17.13;37.89
68141;BME280;54941;52.220;104.306;2024-02-21T03:09:40;99102.13;;;-16.26;36.77
68141;BME280;54941;52.220;104.306;2024-02-21T03:12:06;99113.41;;;-16.98;38.02
68141;BME280;54941;52.220;104.306;2024-02-21T03:14:33;99105.63;;;-16.45;37.10
68141;BME280;54941;52.220;104.306;2024-02-21T03:17:01;99089.78;;;-15.48;36.52
68141;BME280;54941;52.220;104.306;2024-02-21T03:19:28;99085.41;;;-15.49;36.49
68141;BME280;54941;52.220;104.306;2024-02-21T03:21:54;99079.81;;;-15.46;35.50
68141;BME280;54941;52.220;104.306;2024-02-21T03:24:22;99079.84;;;-15.18;34.98
68141;BME280;54941;52.220;104.306;2024-02-21T03:26:48;99071.50;;;-15.38;35.39
68141;BME280;54941;52.220;104.306;2024-02-21T03:29:15;99066.47;;;-14.67;35.37
68141;BME280;54941;52.220;104.306;2024-02-21T03:31:41;99064.34;;;-14.27;33.57
68141;BME280;54941;52.220;104.306;2024-02-21T03:34:10;99056.91;;;-13.37;32.50
68141;BME280;54941;52.220;104.306;2024-02-21T03:36:36;99050.31;;;-13.28;32.40
68141;BME280;54941;52.220;104.306;2024-02-21T03:39:03;99051.69;;;-13.82;32.81
68141;BME280;54941;52.220;104.306;2024-02-21T03:41:29;99053.94;;;-14.73;32.79
68141;BME280;54941;52.220;104.306;2024-02-21T03:43:56;99063.69;;;-15.54;34.44
68141;BME280;54941;52.220;104.306;2024-02-21T03:46:24;99050.59;;;-13.47;33.92
68141;BME280;54941;52.220;104.306;2024-02-21T03:48:50;99048.94;;;-13.40;33.53
68141;BME280;54941;52.220;104.306;2024-02-21T03:51:18;99039.66;;;-13.16;32.84
68141;BME280;54941;52.220;104.306;2024-02-21T03:53:44;99039.94;;;-13.06;31.00
68141;BME280;54941;52.220;104.306;2024-02-21T03:56:10;99021.53;;;-12.42;31.33
68141;BME280;54941;52.220;104.306;2024-02-21T03:58:36;99018.59;;;-12.22;30.75
68141;BME280;54941;52.220;104.306;2024-02-21T04:01:03;99030.78;;;-13.20;31.92
68141;BME280;54941;52.220;104.306;2024-02-21T04:03:30;99027.75;;;-12.86;31.94
68141;BME280;54941;52.220;104.306;2024-02-21T04:05:57;99023.09;;;-13.13;31.31
68141;BME280;54941;52.220;104.306;2024-02-21T04:08:25;99001.84;;;-11.40;30.33
68141;BME280;54941;52.220;104.306;2024-02-21T04:10:51;99001.09;;;-11.63;30.17
68141;BME280;54941;52.220;104.306;2024-02-21T04:13:17;98997.78;;;-11.13;29.58
68141;BME280;54941;52.220;104.306;2024-02-21T04:15:43;99005.19;;;-11.57;30.30
68141;BME280;54941;52.220;104.306;2024-02-21T04:18:10;98998.31;;;-11.25;29.60
68141;BME280;54941;52.220;104.306;2024-02-21T04:20:36;98995.38;;;-11.12;29.67
68141;BME280;54941;52.220;104.306;2024-02-21T04:23:02;98999.47;;;-12.34;29.72
68141;BME280;54941;52.220;104.306;2024-02-21T04:25:30;98987.22;;;-12.46;31.37
68141;BME280;54941;52.220;104.306;2024-02-21T04:27:56;98980.75;;;-11.30;30.85
68141;BME280;54941;52.220;104.306;2024-02-21T04:30:23;98972.75;;;-12.22;30.89
68141;BME280;54941;52.220;104.306;2024-02-21T04:32:49;98986.88;;;-12.87;31.43
68141;BME280;54941;52.220;104.306;2024-02-21T04:35:15;98980.13;;;-13.03;31.52
68141;BME280;54941;52.220;104.306;2024-02-21T04:37:41;98985.63;;;-13.07;31.95
68141;BME280;54941;52.220;104.306;2024-02-21T04:40:08;98975.97;;;-13.25;32.49
68141;BME280;54941;52.220;104.306;2024-02-21T04:42:36;98982.59;;;-13.34;33.11
68141;BME280;54941;52.220;104.306;2024-02-21T04:45:03;98972.56;;;-12.71;32.86
68141;BME280;54941;52.220;104.306;2024-02-21T04:47:30;98967.88;;;-13.14;32.27
68141;BME280;54941;52.220;104.306;2024-02-21T04:49:57;98963.31;;;-13.32;32.76
68141;BME280;54941;52.220;104.306;2024-02-21T04:52:23;98953.50;;;-13.52;33.03
68141;BME280;54941;52.220;104.306;2024-02-21T04:54:49;98945.06;;;-13.21;33.18
68141;BME280;54941;52.220;104.306;2024-02-21T04:57:15;98944.28;;;-13.36;33.01
68141;BME280;54941;52.220;104.306;2024-02-21T04:59:43;98927.84;;;-13.08;33.73
68141;BME280;54941;52.220;104.306;2024-02-21T05:02:10;98933.09;;;-13.22;33.54
68141;BME280;54941;52.220;104.306;2024-02-21T05:04:36;98925.19;;;-12.78;32.80
68141;BME280;54941;52.220;104.306;2024-02-21T05:07:02;98922.63;;;-12.15;32.64
68141;BME280;54941;52.220;104.306;2024-02-21T05:09:28;98918.13;;;-12.49;32.88
68141;BME280;54941;52.220;104.306;2024-02-21T05:11:54;98913.56;;;-12.99;33.08
68141;BME280;54941;52.220;104.306;2024-02-21T05:14:21;98904.31;;;-12.51;33.36
68141;BME280;54941;52.220;104.306;2024-02-21T05:16:48;98894.78;;;-11.89;32.08
68141;BME280;54941;52.220;104.306;2024-02-21T05:19:15;98901.47;;;-12.38;32.10
68141;BME280;54941;52.220;104.306;2024-02-21T05:21:41;98890.81;;;-12.18;31.59
68141;BME280;54941;52.220;104.306;2024-02-21T05:24:07;98886.84;;;-12.48;32.27
68141;BME280;54941;52.220;104.306;2024-02-21T05:26:34;98893.38;;;-13.13;32.56
68141;BME280;54941;52.220;104.306;2024-02-21T05:29:00;98894.84;;;-13.15;32.59
68141;BME280;54941;52.220;104.306;2024-02-21T05:31:26;98897.56;;;-12.98;32.74
68141;BME280;54941;52.220;104.306;2024-02-21T05:34:09;98879.59;;;-13.31;32.98
68141;BME280;54941;52.220;104.306;2024-02-21T05:36:37;98878.72;;;-12.84;32.91
68141;BME280;54941;52.220;104.306;2024-02-21T05:39:03;98866.72;;;-13.01;32.73
68141;BME280;54941;52.220;104.306;2024-02-21T05:41:29;98866.78;;;-13.23;32.92
68141;BME280;54941;52.220;104.306;2024-02-21T05:43:56;98864.09;;;-12.93;32.51
68141;BME280;54941;52.220;104.306;2024-02-21T05:46:22;98861.47;;;-12.55;32.17
68141;BME280;54941;52.220;104.306;2024-02-21T05:48:48;98862.34;;;-12.54;32.23
68141;BME280;54941;52.220;104.306;2024-02-21T05:51:16;98855.72;;;-12.61;32.14
68141;BME280;54941;52.220;104.306;2024-02-21T05:53:42;98843.94;;;-12.36;31.96
68141;BME280;54941;52.220;104.306;2024-02-21T05:56:10;98829.81;;;-12.01;31.75
68141;BME280;54941;52.220;104.306;2024-02-21T05:58:36;98837.47;;;-12.17;31.43
68141;BME280;54941;52.220;104.306;2024-02-21T06:01:03;98826.19;;;-12.03;32.04
68141;BME280;54941;52.220;104.306;2024-02-21T06:03:29;98828.44;;;-12.62;32.38
68141;BME280;54941;52.220;104.306;2024-02-21T06:05:56;98822.69;;;-12.12;32.07
68141;BME280;54941;52.220;104.306;2024-02-21T06:08:24;98834.38;;;-12.70;32.22
68141;BME280;54941;52.220;104.306;2024-02-21T06:10:50;98810.69;;;-12.38;31.99
68141;BME280;54941;52.220;104.306;2024-02-21T06:13:16;98819.44;;;-12.67;32.42
68141;BME280;54941;52.220;104.306;2024-02-21T06:15:42;98807.78;;;-12.81;33.03
68141;BME280;54941;52.220;104.306;2024-02-21T06:18:08;98806.75;;;-12.18;32.78
68141;BME280;54941;52.220;104.306;2024-02-21T06:20:35;98799.38;;;-12.64;33.42
68141;BME280;54941;52.220;104.306;2024-02-21T06:23:01;98792.22;;;-12.84;32.74
68141;BME280;54941;52.220;104.306;2024-02-21T06:25:29;98804.81;;;-12.77;32.89
68141;BME280;54941;52.220;104.306;2024-02-21T06:27:55;98802.91;;;-13.27;33.01
68141;BME280;54941;52.220;104.306;2024-02-21T06:30:21;98803.53;;;-13.05;33.71
68141;BME280;54941;52.220;104.306;2024-02-21T06:32:48;98796.53;;;-12.99;33.49
68141;BME280;54941;52.220;104.306;2024-02-21T06:35:14;98793.16;;;-13.31;33.07
68141;BME280;54941;52.220;104.306;2024-02-21T06:37:40;98801.47;;;-13.32;33.77
68141;BME280;54941;52.220;104.306;2024-02-21T06:40:07;98790.50;;;-13.23;33.74
68141;BME280;54941;52.220;104.306;2024-02-21T06:42:35;98778.16;;;-13.12;33.29
68141;BME280;54941;52.220;104.306;2024-02-21T06:45:02;98784.41;;;-13.17;33.89
68141;BME280;54941;52.220;104.306;2024-02-21T06:47:30;98771.69;;;-13.01;33.45
68141;BME280;54941;52.220;104.306;2024-02-21T06:49:57;98767.78;;;-13.22;33.41
68141;BME280;54941;52.220;104.306;2024-02-21T06:52:23;98761.91;;;-12.89;34.17
68141;BME280;54941;52.220;104.306;2024-02-21T06:54:49;98760.19;;;-12.98;33.76
68141;BME280;54941;52.220;104.306;2024-02-21T06:57:16;98764.31;;;-13.07;33.67
68141;BME280;54941;52.220;104.306;2024-02-21T06:59:43;98773.09;;;-13.12;33.85
68141;BME280;54941;52.220;104.306;2024-02-21T07:02:10;98754.03;;;-13.00;33.65
68141;BME280;54941;52.220;104.306;2024-02-21T07:04:36;98752.03;;;-12.86;34.42
68141;BME280;54941;52.220;104.306;2024-02-21T07:07:03;98736.16;;;-12.92;34.58
68141;BME280;54941;52.220;104.306;2024-02-21T07:09:29;98749.56;;;-13.18;34.36
68141;BME280;54941;52.220;104.306;2024-02-21T07:11:55;98734.25;;;-13.27;34.36
68141;BME280;54941;52.220;104.306;2024-02-21T07:14:22;98741.00;;;-13.03;35.07
68141;BME280;54941;52.220;104.306;2024-02-21T07:16:49;98730.59;;;-13.13;34.42
68141;BME280;54941;52.220;104.306;2024-02-21T07:19:16;98728.16;;;-13.20;34.69
68141;BME280;54941;52.220;104.306;2024-02-21T07:21:42;98729.88;;;-12.72;34.84
68141;BME280;54941;52.220;104.306;2024-02-21T07:24:09;98736.88;;;-12.93;33.85
68141;BME280;54941;52.220;104.306;2024-02-21T07:26:35;98715.38;;;-12.88;33.94
68141;BME280;54941;52.220;104.306;2024-02-21T07:29:01;98722.09;;;-12.89;34.52
68141;BME280;54941;52.220;104.306;2024-02-21T07:31:28;98714.09;;;-12.76;34.78
68141;BME280;54941;52.220;104.306;2024-02-21T07:33:55;98719.19;;;-12.76;34.21
68141;BME280;54941;52.220;104.306;2024-02-21T07:36:27;98713.25;;;-12.92;33.86
68141;BME280;54941;52.220;104.306;2024-02-21T07:38:54;98706.09;;;-12.63;34.16
68141;BME280;54941;52.220;104.306;2024-02-21T07:41:20;98703.41;;;-12.65;34.51
68141;BME280;54941;52.220;104.306;2024-02-21T07:43:47;98699.38;;;-12.63;34.22
68141;BME280;54941;52.220;104.306;2024-02-21T07:46:13;98707.81;;;-12.80;33.92
68141;BME280;54941;52.220;104.306;2024-02-21T07:48:40;98703.84;;;-12.69;34.26
68141;BME280;54941;52.220;104.306;2024-02-21T07:51:07;98705.16;;;-12.73;33.74
68141;BME280;54941;52.220;104.306;2024-02-21T07:53:34;98705.69;;;-12.84;33.38
68141;BME280;54941;52.220;104.306;2024-02-21T07:56:00;98695.06;;;-13.04;33.24
68141;BME280;54941;52.220;104.306;2024-02-21T07:58:26;98692.41;;;-12.97;33.77
68141;BME280;54941;52.220;104.306;2024-02-21T08:00:52;98690.13;;;-13.03;34.11
68141;BME280;54941;52.220;104.306;2024-02-21T08:03:19;98696.72;;;-12.80;33.86
68141;BME280;54941;52.220;104.306;2024-02-21T08:05:45;98689.53;;;-13.00;33.89
68141;BME280;54941;52.220;104.306;2024-02-21T08:08:13;98692.25;;;-12.99;34.47
68141;BME280;54941;52.220;104.306;2024-02-21T08:10:39;98684.22;;;-12.94;33.99
68141;BME280;54941;52.220;104.306;2024-02-21T08:13:05;98680.75;;;-12.95;33.79
68141;BME280;54941;52.220;104.306;2024-02-21T08:15:32;98676.50;;;-13.03;33.60
68141;BME280;54941;52.220;104.306;2024-02-21T08:17:58;98683.78;;;-12.90;34.25
68141;BME280;54941;52.220;104.306;2024-02-21T08:20:24;98690.97;;;-12.86;34.18
68141;BME280;54941;52.220;104.306;2024-02-21T08:22:50;98682.22;;;-12.97;33.93
68141;BME280;54941;52.220;104.306;2024-02-21T08:25:18;98680.34;;;-12.91;34.19
68141;BME280;54941;52.220;104.306;2024-02-21T08:27:45;98674.44;;;-12.99;33.94
68141;BME280;54941;52.220;104.306;2024-02-21T08:30:12;98676.66;;;-13.02;34.05
68141;BME280;54941;52.220;104.306;2024-02-21T08:32:38;98669.69;;;-12.96;34.51
68141;BME280;54941;52.220;104.306;2024-02-21T08:35:05;98672.09;;;-12.88;34.94
68141;BME280;54941;52.220;104.306;2024-02-21T08:37:32;98679.19;;;-13.02;34.54
68141;BME280;54941;52.220;104.306;2024-02-21T08:39:58;98672.00;;;-13.06;34.54
68141;BME280;54941;52.220;104.306;2024-02-21T08:42:26;98664.69;;;-13.03;34.47
68141;BME280;54941;52.220;104.306;2024-02-21T08:44:52;98666.50;;;-13.02;34.99
68141;BME280;54941;52.220;104.306;2024-02-21T08:47:18;98668.22;;;-13.09;35.24
68141;BME280;54941;52.220;104.306;2024-02-21T08:49:45;98665.00;;;-13.00;35.35
68141;BME280;54941;52.220;104.306;2024-02-21T08:52:11;98663.34;;;-12.99;35.83
68141;BME280;54941;52.220;104.306;2024-02-21T08:54:37;98665.44;;;-13.04;35.95
68141;BME280;54941;52.220;104.306;2024-02-21T08:57:04;98663.25;;;-13.16;35.81
68141;BME280;54941;52.220;104.306;2024-02-21T08:59:32;98658.03;;;-13.34;35.62
68141;BME280;54941;52.220;104.306;2024-02-21T09:01:58;98661.59;;;-13.40;35.69
68141;BME280;54941;52.220;104.306;2024-02-21T09:04:24;98656.56;;;-13.32;36.02
68141;BME280;54941;52.220;104.306;2024-02-21T09:06:50;98662.72;;;-13.45;36.23
68141;BME280;54941;52.220;104.306;2024-02-21T09:09:17;98662.69;;;-13.54;36.51
68141;BME280;54941;52.220;104.306;2024-02-21T09:11:43;98656.66;;;-13.55;37.31
68141;BME280;54941;52.220;104.306;2024-02-21T09:14:09;98663.06;;;-13.42;37.35
68141;BME280;54941;52.220;104.306;2024-02-21T09:16:37;98654.72;;;-13.41;37.08
68141;BME280;54941;52.220;104.306;2024-02-21T09:19:03;98653.22;;;-13.55;36.58
68141;BME280;54941;52.220;104.306;2024-02-21T09:21:29;98646.91;;;-13.59;36.33
68141;BME280;54941;52.220;104.306;2024-02-21T09:23:56;98655.44;;;-13.74;35.50
68141;BME280;54941;52.220;104.306;2024-02-21T09:26:22;98656.31;;;-13.89;35.53
68141;BME280;54941;52.220;104.306;2024-02-21T09:28:48;98657.31;;;-13.96;35.35
68141;BME280;54941;52.220;104.306;2024-02-21T09:31:14;98652.88;;;-14.05;35.60
68141;BME280;54941;52.220;104.306;2024-02-21T09:33:42;98652.78;;;-14.14;35.51
68141;BME280;54941;52.220;104.306;2024-02-21T09:36:09;98660.47;;;-14.21;35.51
68141;BME280;54941;52.220;104.306;2024-02-21T09:38:39;98655.72;;;-14.18;35.46
68141;BME280;54941;52.220;104.306;2024-02-21T09:41:14;98652.44;;;-14.33;35.38
68141;BME280;54941;52.220;104.306;2024-02-21T09:43:41;98649.03;;;-14.40;35.66
68141;BME280;54941;52.220;104.306;2024-02-21T09:46:08;98650.38;;;-14.44;35.27
68141;BME280;54941;52.220;104.306;2024-02-21T09:48:57;98651.50;;;-14.72;35.50
68141;BME280;54941;52.220;104.306;2024-02-21T09:51:25;98656.41;;;-14.74;35.55
68141;BME280;54941;52.220;104.306;2024-02-21T09:53:56;98648.91;;;-14.88;35.79
68141;BME280;54941;52.220;104.306;2024-02-21T09:56:23;98659.47;;;-14.92;36.08
68141;BME280;54941;52.220;104.306;2024-02-21T09:58:49;98655.75;;;-15.10;35.69
68141;BME280;54941;52.220;104.306;2024-02-21T10:01:16;98661.06;;;-15.15;35.96
68141;BME280;54941;52.220;104.306;2024-02-21T10:03:43;98666.31;;;-15.21;36.31
68141;BME280;54941;52.220;104.306;2024-02-21T10:06:10;98670.56;;;-15.36;36.13
68141;BME280;54941;52.220;104.306;2024-02-21T10:08:36;98670.97;;;-15.47;36.28
68141;BME280;54941;52.220;104.306;2024-02-21T10:11:02;98666.19;;;-15.59;36.44
68141;BME280;54941;52.220;104.306;2024-02-21T10:13:29;98662.88;;;-15.58;36.52
68141;BME280;54941;52.220;104.306;2024-02-21T10:16:03;98670.38;;;-15.67;36.79
68141;BME280;54941;52.220;104.306;2024-02-21T10:18:29;98675.47;;;-15.81;37.08
68141;BME280;54941;52.220;104.306;2024-02-21T10:21:04;98685.66;;;-15.96;37.54
68141;BME280;54941;52.220;104.306;2024-02-21T10:23:42;98679.16;;;-16.15;38.92
68141;BME280;54941;52.220;104.306;2024-02-21T10:26:08;98681.53;;;-16.24;39.46
68141;BME280;54941;52.220;104.306;2024-02-21T10:28:35;98686.41;;;-16.32;39.65
68141;BME280;54941;52.220;104.306;2024-02-21T10:31:01;98697.44;;;-16.39;38.15
68141;BME280;54941;52.220;104.306;2024-02-21T10:33:27;98693.66;;;-16.57;37.90
68141;BME280;54941;52.220;104.306;2024-02-21T10:35:54;98698.53;;;-16.65;37.74
68141;BME280;54941;52.220;104.306;2024-02-21T10:38:22;98692.59;;;-16.73;37.45
68141;BME280;54941;52.220;104.306;2024-02-21T10:40:49;98695.47;;;-16.91;37.75
68141;BME280;54941;52.220;104.306;2024-02-21T10:43:16;98700.50;;;-17.13;38.81
68141;BME280;54941;52.220;104.306;2024-02-21T10:45:43;98696.69;;;-17.23;39.34
68141;BME280;54941;52.220;104.306;2024-02-21T10:48:11;98697.56;;;-17.23;38.75
68141;BME280;54941;52.220;104.306;2024-02-21T10:50:50;98697.00;;;-17.34;38.54
68141;BME280;54941;52.220;104.306;2024-02-21T10:53:28;98696.03;;;-17.56;38.37
68141;BME280;54941;52.220;104.306;2024-02-21T10:56:00;98698.16;;;-17.59;38.41
68141;BME280;54941;52.220;104.306;2024-02-21T10:58:32;98705.69;;;-17.74;38.38
68141;BME280;54941;52.220;104.306;2024-02-21T11:00:59;98708.38;;;-17.79;38.56
68141;BME280;54941;52.220;104.306;2024-02-21T11:03:26;98709.59;;;-17.90;38.78
68141;BME280;54941;52.220;104.306;2024-02-21T11:05:53;98705.97;;;-17.92;38.72
68141;BME280;54941;52.220;104.306;2024-02-21T11:08:20;98702.50;;;-18.00;38.99
68141;BME280;54941;52.220;104.306;2024-02-21T11:10:47;98700.66;;;-18.08;39.03
68141;BME280;54941;52.220;104.306;2024-02-21T11:13:14;98721.28;;;-18.17;39.92
68141;BME280;54941;52.220;104.306;2024-02-21T11:15:40;98711.03;;;-18.19;39.45
68141;BME280;54941;52.220;104.306;2024-02-21T11:18:06;98732.38;;;-18.30;39.25
68141;BME280;54941;52.220;104.306;2024-02-21T11:20:33;98731.44;;;-18.37;39.62
68141;BME280;54941;52.220;104.306;2024-02-21T11:23:00;98732.63;;;-18.48;39.66
68141;BME280;54941;52.220;104.306;2024-02-21T11:25:26;98735.84;;;-18.49;40.10
68141;BME280;54941;52.220;104.306;2024-02-21T11:28:01;98740.03;;;-18.69;39.78
68141;BME280;54941;52.220;104.306;2024-02-21T11:30:29;98747.97;;;-18.66;39.58
68141;BME280;54941;52.220;104.306;2024-02-21T11:33:00;98750.75;;;-18.77;39.60
68141;BME280;54941;52.220;104.306;2024-02-21T11:35:31;98749.31;;;-18.75;39.58
68141;BME280;54941;52.220;104.306;2024-02-21T11:38:07;98746.47;;;-18.91;40.01
68141;BME280;54941;52.220;104.306;2024-02-21T11:40:34;98754.09;;;-19.04;39.79
68141;BME280;54941;52.220;104.306;2024-02-21T11:43:02;98748.38;;;-19.15;39.86
68141;BME280;54941;52.220;104.306;2024-02-21T11:45:28;98751.66;;;-19.29;39.85
68141;BME280;54941;52.220;104.306;2024-02-21T11:47:54;98765.16;;;-19.29;40.09
68141;BME280;54941;52.220;104.306;2024-02-21T11:50:21;98760.72;;;-19.37;40.28
68141;BME280;54941;52.220;104.306;2024-02-21T11:52:48;98750.28;;;-19.40;40.30
68141;BME280;54941;52.220;104.306;2024-02-21T11:55:14;98760.34;;;-19.40;40.54
68141;BME280;54941;52.220;104.306;2024-02-21T11:57:42;98768.22;;;-19.57;40.36
68141;BME280;54941;52.220;104.306;2024-02-21T12:00:15;98760.72;;;-19.37;40.27
68141;BME280;54941;52.220;104.306;2024-02-21T12:02:41;98753.34;;;-19.68;40.59
68141;BME280;54941;52.220;104.306;2024-02-21T12:05:08;98753.47;;;-19.61;40.44
68141;BME280;54941;52.220;104.306;2024-02-21T12:07:36;98765.47;;;-19.78;40.48
68141;BME280;54941;52.220;104.306;2024-02-21T12:10:03;98763.63;;;-19.92;40.84
68141;BME280;54941;52.220;104.306;2024-02-21T12:12:29;98761.44;;;-19.96;40.93
68141;BME280;54941;52.220;104.306;2024-02-21T12:14:56;98755.50;;;-19.96;41.13
68141;BME280;54941;52.220;104.306;2024-02-21T12:17:24;98762.44;;;-19.88;41.31
68141;BME280;54941;52.220;104.306;2024-02-21T12:19:50;98759.31;;;-20.05;42.24
68141;BME280;54941;52.220;104.306;2024-02-21T12:22:18;98762.03;;;-19.91;41.36
68141;BME280;54941;52.220;104.306;2024-02-21T12:24:44;98755.69;;;-19.95;41.12
68141;BME280;54941;52.220;104.306;2024-02-21T12:27:11;98756.47;;;-20.14;41.10
68141;BME280;54941;52.220;104.306;2024-02-21T12:29:38;98751.38;;;-20.21;41.56
68141;BME280;54941;52.220;104.306;2024-02-21T12:32:04;98763.94;;;-20.34;41.69